Startpagina
METAR-TAF:

METAR-TAF

Vliegvelden :

Irkoetsk, Rusland

Luchthaven Irkoetsk

breedte: 52-16N, lengte: 104-19E, hoogte: 513 m

Actueel weer

Dit bericht is 27 minuten geleden gemaakt, om 18:00 UTC
Wind 6 kt uit het oosten
Temperatuur -16°C
Vochtigheid 71%
Druk 1021 hPa
Zicht 10 km of meer
geen wolken onder 1500 m en geen cumulonimbus

METAR: UIII 231800Z 10003MPS CAVOK M16/M20 Q1021 R12/820550 NOSIG RMK QFE723/0964

Tijdstip: 02:27 (18:27 UTC)

Verwachting

Dit bericht is 1 uur en het 27 minuten geleden gemaakt, om 17:00 UTC
Verwachting geldig van 23 om 18 UTC tot 24 om 18 UTC
Wind 2 kt uit variabele richting
Zicht 10 km of meer
geen wolken onder 1500 m en geen cumulonimbus
Wijzigt naar
van 24 om 01 UTC tot 24 om 03 UTC
Wind 12 kt uit het zuidoosten

TAF: UIII 231700Z 2318/2418 VRB01MPS CAVOK BECMG 2401/2403 14006MPS

Waarnemingen en weersverwachtingen van meer dan 4000 vliegvelden (METAR en TAF).

De beschikbare stations zijn de gele en rode punten op de kaart.

Ga met uw muis naar het station om de naam te zien.

Klik dan om waarnemingen en weersverwachtingen te zien.

kaart wijzigen: klik op de groene knoppen met een zwart kruis om in te zoomen, op de groene knop met een streepje om uit te zoomen of op de groene pijlen voor aangrenzende kaarten.


METAR-TAF: